sensor_id;sensor_type;location;lat;lon;timestamp;pressure;altitude;pressure_sealevel;temperature;humidity
49341;BME280;35209;51.050;13.678;2023-02-20T00:03:59;100628.03;;;3.15;97.85
49341;BME280;35209;51.050;13.678;2023-02-20T00:09:01;100628.94;;;3.23;98.66
49341;BME280;35209;51.050;13.678;2023-02-20T00:14:03;100627.25;;;3.31;99.73
49341;BME280;35209;51.050;13.678;2023-02-20T00:19:05;100625.63;;;3.42;99.70
49341;BME280;35209;51.050;13.678;2023-02-20T00:24:06;100617.94;;;3.59;99.27
49341;BME280;35209;51.050;13.678;2023-02-20T00:29:09;100619.66;;;3.56;100.00
49341;BME280;35209;51.050;13.678;2023-02-20T00:34:11;100610.13;;;3.54;100.00
49341;BME280;35209;51.050;13.678;2023-02-20T00:39:13;100603.94;;;3.39;100.00
49341;BME280;35209;51.050;13.678;2023-02-20T00:44:15;100603.13;;;3.47;100.00
49341;BME280;35209;51.050;13.678;2023-02-20T00:49:17;100601.41;;;3.52;100.00
49341;BME280;35209;51.050;13.678;2023-02-20T00:54:19;100598.94;;;3.72;100.00
49341;BME280;35209;51.050;13.678;2023-02-20T00:59:21;100595.59;;;3.99;100.00
49341;BME280;35209;51.050;13.678;2023-02-20T01:04:23;100593.09;;;4.30;100.00
49341;BME280;35209;51.050;13.678;2023-02-20T01:09:24;100570.53;;;4.35;100.00
49341;BME280;35209;51.050;13.678;2023-02-20T01:14:28;100578.38;;;4.43;99.88
49341;BME280;35209;51.050;13.678;2023-02-20T01:19:30;100580.97;;;4.50;100.00
49341;BME280;35209;51.050;13.678;2023-02-20T01:24:31;100578.38;;;4.55;100.00
49341;BME280;35209;51.050;13.678;2023-02-20T01:29:33;100565.38;;;4.63;99.89
49341;BME280;35209;51.050;13.678;2023-02-20T01:34:35;100557.56;;;4.84;98.41
49341;BME280;35209;51.050;13.678;2023-02-20T01:39:36;100561.03;;;4.60;100.00
49341;BME280;35209;51.050;13.678;2023-02-20T01:44:38;100548.91;;;4.74;99.87
49341;BME280;35209;51.050;13.678;2023-02-20T01:49:51;100545.41;;;4.63;100.00
49341;BME280;35209;51.050;13.678;2023-02-20T01:55:03;100541.06;;;4.62;100.00
49341;BME280;35209;51.050;13.678;2023-02-20T02:00:09;100542.81;;;4.75;100.00
49341;BME280;35209;51.050;13.678;2023-02-20T02:05:18;100535.84;;;4.68;100.00
49341;BME280;35209;51.050;13.678;2023-02-20T02:10:24;100531.53;;;4.83;100.00
49341;BME280;35209;51.050;13.678;2023-02-20T02:15:31;100536.72;;;4.76;100.00
49341;BME280;35209;51.050;13.678;2023-02-20T02:42:09;100507.16;;;5.19;100.00
49341;BME280;35209;51.050;13.678;2023-02-20T02:47:45;100515.00;;;5.06;100.00
49341;BME280;35209;51.050;13.678;2023-02-20T02:52:50;100514.13;;;5.14;100.00
49341;BME280;35209;51.050;13.678;2023-02-20T02:57:53;100482.78;;;5.30;100.00
49341;BME280;35209;51.050;13.678;2023-02-20T03:03:32;100480.19;;;5.32;100.00
49341;BME280;35209;51.050;13.678;2023-02-20T03:08:39;100481.03;;;5.34;100.00
49341;BME280;35209;51.050;13.678;2023-02-20T03:13:45;100462.75;;;5.43;100.00
49341;BME280;35209;51.050;13.678;2023-02-20T03:19:11;100467.94;;;5.54;100.00
49341;BME280;35209;51.050;13.678;2023-02-20T03:24:19;100474.84;;;5.61;100.00
49341;BME280;35209;51.050;13.678;2023-02-20T03:29:30;100462.69;;;5.57;100.00
49341;BME280;35209;51.050;13.678;2023-02-20T03:34:33;100458.44;;;5.45;100.00
49341;BME280;35209;51.050;13.678;2023-02-20T03:39:57;100458.34;;;5.57;100.00
49341;BME280;35209;51.050;13.678;2023-02-20T03:45:19;100454.91;;;5.51;100.00
49341;BME280;35209;51.050;13.678;2023-02-20T03:50:24;100457.56;;;5.42;100.00
49341;BME280;35209;51.050;13.678;2023-02-20T03:55:46;100450.59;;;5.47;100.00
49341;BME280;35209;51.050;13.678;2023-02-20T04:00:51;100451.34;;;5.69;100.00
49341;BME280;35209;51.050;13.678;2023-02-20T04:05:56;100453.16;;;5.51;100.00
49341;BME280;35209;51.050;13.678;2023-02-20T04:11:40;100442.69;;;5.64;100.00
49341;BME280;35209;51.050;13.678;2023-02-20T04:16:50;100439.13;;;5.77;100.00
49341;BME280;35209;51.050;13.678;2023-02-20T04:21:55;100414.81;;;5.76;100.00
49341;BME280;35209;51.050;13.678;2023-02-20T04:26:59;100419.16;;;5.76;100.00
49341;BME280;35209;51.050;13.678;2023-02-20T04:32:02;100414.75;;;5.82;100.00
49341;BME280;35209;51.050;13.678;2023-02-20T04:37:11;100417.34;;;5.82;100.00
49341;BME280;35209;51.050;13.678;2023-02-20T04:42:14;100406.06;;;5.82;100.00
49341;BME280;35209;51.050;13.678;2023-02-20T04:47:17;100424.28;;;5.93;100.00
49341;BME280;35209;51.050;13.678;2023-02-20T04:52:19;100422.56;;;5.84;100.00
49341;BME280;35209;51.050;13.678;2023-02-20T04:57:21;100421.59;;;6.02;100.00
49341;BME280;35209;51.050;13.678;2023-02-20T05:02:23;100418.09;;;6.06;100.00
49341;BME280;35209;51.050;13.678;2023-02-20T05:07:25;100409.41;;;6.05;100.00
49341;BME280;35209;51.050;13.678;2023-02-20T05:12:27;100407.75;;;5.95;100.00
49341;BME280;35209;51.050;13.678;2023-02-20T05:17:29;100396.44;;;5.95;100.00
49341;BME280;35209;51.050;13.678;2023-02-20T05:22:30;100388.50;;;6.09;100.00
49341;BME280;35209;51.050;13.678;2023-02-20T05:27:32;100385.06;;;6.03;100.00
49341;BME280;35209;51.050;13.678;2023-02-20T05:32:34;100363.13;;;6.26;98.59
49341;BME280;35209;51.050;13.678;2023-02-20T05:37:36;100338.72;;;6.33;95.94
49341;BME280;35209;51.050;13.678;2023-02-20T05:42:40;100341.31;;;6.33;95.88
49341;BME280;35209;51.050;13.678;2023-02-20T05:47:42;100323.19;;;6.16;98.46
49341;BME280;35209;51.050;13.678;2023-02-20T05:52:43;100335.25;;;6.28;97.67
49341;BME280;35209;51.050;13.678;2023-02-20T05:57:45;100337.13;;;6.17;97.61
49341;BME280;35209;51.050;13.678;2023-02-20T06:02:47;100326.59;;;6.26;95.53
49341;BME280;35209;51.050;13.678;2023-02-20T06:07:49;100342.22;;;6.30;93.60
49341;BME280;35209;51.050;13.678;2023-02-20T06:12:50;100348.22;;;6.39;92.54
49341;BME280;35209;51.050;13.678;2023-02-20T06:17:52;100344.91;;;6.21;94.32
49341;BME280;35209;51.050;13.678;2023-02-20T06:22:54;100348.22;;;6.37;93.00
49341;BME280;35209;51.050;13.678;2023-02-20T06:27:57;100336.09;;;6.31;94.07
49341;BME280;35209;51.050;13.678;2023-02-20T06:32:59;100316.78;;;6.51;91.93
49341;BME280;35209;51.050;13.678;2023-02-20T06:38:01;100333.34;;;6.47;92.76
49341;BME280;35209;51.050;13.678;2023-02-20T06:43:03;100339.44;;;6.46;91.86
49341;BME280;35209;51.050;13.678;2023-02-20T06:48:04;100325.28;;;6.67;89.01
49341;BME280;35209;51.050;13.678;2023-02-20T06:53:06;100314.88;;;6.65;87.93
49341;BME280;35209;51.050;13.678;2023-02-20T06:58:08;100320.13;;;6.59;86.93
49341;BME280;35209;51.050;13.678;2023-02-20T07:03:11;100321.94;;;6.55;86.12
49341;BME280;35209;51.050;13.678;2023-02-20T07:08:13;100302.78;;;6.56;84.54
49341;BME280;35209;51.050;13.678;2023-02-20T07:13:15;100299.22;;;6.62;82.84
49341;BME280;35209;51.050;13.678;2023-02-20T07:18:17;100298.34;;;6.62;81.74
49341;BME280;35209;51.050;13.678;2023-02-20T07:23:19;100284.28;;;6.72;79.86
49341;BME280;35209;51.050;13.678;2023-02-20T07:28:20;100283.25;;;6.85;78.34
49341;BME280;35209;51.050;13.678;2023-02-20T07:33:22;100268.34;;;6.93;77.46
49341;BME280;35209;51.050;13.678;2023-02-20T07:38:24;100255.25;;;6.95;74.26
49341;BME280;35209;51.050;13.678;2023-02-20T07:43:26;100253.31;;;7.11;72.45
49341;BME280;35209;51.050;13.678;2023-02-20T07:48:27;100250.53;;;7.23;70.72
49341;BME280;35209;51.050;13.678;2023-02-20T07:53:29;100233.13;;;7.22;70.76
49341;BME280;35209;51.050;13.678;2023-02-20T07:58:31;100240.81;;;7.29;69.51
49341;BME280;35209;51.050;13.678;2023-02-20T08:03:33;100254.63;;;7.39;69.43
49341;BME280;35209;51.050;13.678;2023-02-20T08:08:35;100263.25;;;7.46;67.86
49341;BME280;35209;51.050;13.678;2023-02-20T08:13:37;100221.56;;;7.37;68.26
49341;BME280;35209;51.050;13.678;2023-02-20T08:18:48;100207.56;;;7.38;69.03
49341;BME280;35209;51.050;13.678;2023-02-20T08:23:49;100197.66;;;7.58;67.90
49341;BME280;35209;51.050;13.678;2023-02-20T08:28:53;100212.16;;;7.77;67.29
49341;BME280;35209;51.050;13.678;2023-02-20T08:33:54;100208.56;;;7.83;67.19
49341;BME280;35209;51.050;13.678;2023-02-20T08:38:56;100214.47;;;7.94;67.72
49341;BME280;35209;51.050;13.678;2023-02-20T08:44:00;100183.50;;;8.16;67.53
49341;BME280;35209;51.050;13.678;2023-02-20T08:49:02;100180.56;;;8.31;66.64
49341;BME280;35209;51.050;13.678;2023-02-20T08:54:04;100191.03;;;8.33;67.73
49341;BME280;35209;51.050;13.678;2023-02-20T08:59:06;100155.78;;;8.49;66.31
49341;BME280;35209;51.050;13.678;2023-02-20T09:04:09;100145.69;;;8.73;64.39
49341;BME280;35209;51.050;13.678;2023-02-20T09:09:10;100160.16;;;8.89;64.42
49341;BME280;35209;51.050;13.678;2023-02-20T09:14:12;100132.06;;;8.96;63.94
49341;BME280;35209;51.050;13.678;2023-02-20T09:19:14;100131.88;;;9.03;64.88
49341;BME280;35209;51.050;13.678;2023-02-20T09:24:18;100143.75;;;9.18;63.56
49341;BME280;35209;51.050;13.678;2023-02-20T09:29:19;100131.09;;;9.34;64.31
49341;BME280;35209;51.050;13.678;2023-02-20T09:34:21;100116.94;;;9.41;63.31
49341;BME280;35209;51.050;13.678;2023-02-20T09:39:23;100118.50;;;9.48;64.15
49341;BME280;35209;51.050;13.678;2023-02-20T09:50:01;100094.53;;;9.62;62.21
49341;BME280;35209;51.050;13.678;2023-02-20T09:55:11;100083.84;;;9.70;63.14
49341;BME280;35209;51.050;13.678;2023-02-20T10:00:26;100088.97;;;9.74;63.25
49341;BME280;35209;51.050;13.678;2023-02-20T10:05:31;100075.34;;;9.91;61.38
49341;BME280;35209;51.050;13.678;2023-02-20T10:10:33;100083.19;;;9.93;62.11
49341;BME280;35209;51.050;13.678;2023-02-20T10:36:25;100049.66;;;10.32;59.10
49341;BME280;35209;51.050;13.678;2023-02-20T10:41:32;100062.63;;;10.38;59.56
49341;BME280;35209;51.050;13.678;2023-02-20T10:46:48;100061.66;;;10.41;59.14
49341;BME280;35209;51.050;13.678;2023-02-20T10:51:56;100048.28;;;10.48;58.84
49341;BME280;35209;51.050;13.678;2023-02-20T10:57:06;100046.34;;;10.53;58.10
49341;BME280;35209;51.050;13.678;2023-02-20T11:02:17;100033.81;;;10.63;57.26
49341;BME280;35209;51.050;13.678;2023-02-20T11:07:20;100000.22;;;10.71;56.66
49341;BME280;35209;51.050;13.678;2023-02-20T11:12:32;99990.78;;;10.66;56.75
49341;BME280;35209;51.050;13.678;2023-02-20T11:17:37;99979.06;;;10.76;55.23
49341;BME280;35209;51.050;13.678;2023-02-20T11:22:48;99976.53;;;10.73;55.73
49341;BME280;35209;51.050;13.678;2023-02-20T11:27:52;99965.63;;;10.83;55.14
49341;BME280;35209;51.050;13.678;2023-02-20T11:33:21;99948.53;;;10.97;55.51
49341;BME280;35209;51.050;13.678;2023-02-20T11:43:26;99916.00;;;10.99;55.53
49341;BME280;35209;51.050;13.678;2023-02-20T11:48:28;99891.03;;;11.11;53.69
49341;BME280;35209;51.050;13.678;2023-02-20T11:53:32;99892.78;;;11.35;52.20
49341;BME280;35209;51.050;13.678;2023-02-20T11:58:35;99900.50;;;11.40;52.34
49341;BME280;35209;51.050;13.678;2023-02-20T12:03:37;99910.59;;;11.51;52.58
49341;BME280;35209;51.050;13.678;2023-02-20T12:08:54;99888.00;;;11.69;51.60
49341;BME280;35209;51.050;13.678;2023-02-20T12:13:58;99875.75;;;11.68;51.78
49341;BME280;35209;51.050;13.678;2023-02-20T12:29:45;99856.53;;;12.31;50.57
49341;BME280;35209;51.050;13.678;2023-02-20T12:34:57;99856.50;;;12.53;51.68
49341;BME280;35209;51.050;13.678;2023-02-20T12:51:41;99845.03;;;12.12;50.75
49341;BME280;35209;51.050;13.678;2023-02-20T12:57:05;99833.91;;;12.05;51.61
49341;BME280;35209;51.050;13.678;2023-02-20T13:07:50;99824.22;;;12.06;53.57
49341;BME280;35209;51.050;13.678;2023-02-20T13:12:53;99819.06;;;12.03;53.82
49341;BME280;35209;51.050;13.678;2023-02-20T13:23:36;99819.03;;;12.04;54.77
49341;BME280;35209;51.050;13.678;2023-02-20T13:28:42;99814.91;;;11.97;55.74
49341;BME280;35209;51.050;13.678;2023-02-20T13:33:48;99811.50;;;12.16;56.17
49341;BME280;35209;51.050;13.678;2023-02-20T13:39:26;99802.88;;;12.12;55.50
49341;BME280;35209;51.050;13.678;2023-02-20T13:54:49;99797.56;;;12.14;57.10
49341;BME280;35209;51.050;13.678;2023-02-20T13:59:53;99793.91;;;12.16;57.61
49341;BME280;35209;51.050;13.678;2023-02-20T14:04:58;99782.09;;;12.26;57.09
49341;BME280;35209;51.050;13.678;2023-02-20T14:10:36;99792.78;;;12.22;57.13
49341;BME280;35209;51.050;13.678;2023-02-20T14:15:51;99780.34;;;12.25;56.43
49341;BME280;35209;51.050;13.678;2023-02-20T14:26:21;99777.66;;;12.27;56.79
49341;BME280;35209;51.050;13.678;2023-02-20T14:36:41;99769.56;;;12.31;56.45
49341;BME280;35209;51.050;13.678;2023-02-20T14:41:52;99782.78;;;12.30;56.80
49341;BME280;35209;51.050;13.678;2023-02-20T14:47:08;99805.47;;;12.34;57.04
49341;BME280;35209;51.050;13.678;2023-02-20T14:52:23;99785.91;;;12.40;56.72
49341;BME280;35209;51.050;13.678;2023-02-20T14:57:26;99790.03;;;12.25;56.97
49341;BME280;35209;51.050;13.678;2023-02-20T15:02:28;99798.13;;;12.20;57.90
49341;BME280;35209;51.050;13.678;2023-02-20T15:07:37;99794.38;;;12.05;58.07
49341;BME280;35209;51.050;13.678;2023-02-20T15:12:40;99810.78;;;12.12;57.92
49341;BME280;35209;51.050;13.678;2023-02-20T15:17:43;99800.41;;;11.87;59.14
49341;BME280;35209;51.050;13.678;2023-02-20T15:22:45;99796.84;;;11.88;59.39
49341;BME280;35209;51.050;13.678;2023-02-20T15:28:08;99805.88;;;11.81;59.70
49341;BME280;35209;51.050;13.678;2023-02-20T15:33:12;99807.59;;;11.82;59.47
49341;BME280;35209;51.050;13.678;2023-02-20T15:38:14;99804.09;;;11.81;60.09
49341;BME280;35209;51.050;13.678;2023-02-20T15:43:16;99803.06;;;11.63;60.85
49341;BME280;35209;51.050;13.678;2023-02-20T15:48:38;99804.53;;;11.71;60.44
49341;BME280;35209;51.050;13.678;2023-02-20T15:53:41;99809.34;;;11.83;60.40
49341;BME280;35209;51.050;13.678;2023-02-20T15:58:47;99820.94;;;11.77;60.46
49341;BME280;35209;51.050;13.678;2023-02-20T16:03:49;99815.31;;;11.65;61.65
49341;BME280;35209;51.050;13.678;2023-02-20T16:08:54;99804.09;;;11.59;62.13
49341;BME280;35209;51.050;13.678;2023-02-20T16:13:58;99805.94;;;11.57;62.11
49341;BME280;35209;51.050;13.678;2023-02-20T16:19:03;99812.78;;;11.40;63.27
49341;BME280;35209;51.050;13.678;2023-02-20T16:24:05;99816.94;;;11.45;63.34
49341;BME280;35209;51.050;13.678;2023-02-20T16:29:41;99809.88;;;11.47;63.71
49341;BME280;35209;51.050;13.678;2023-02-20T16:34:43;99822.69;;;11.55;63.61
49341;BME280;35209;51.050;13.678;2023-02-20T16:39:47;99830.56;;;11.56;64.14
49341;BME280;35209;51.050;13.678;2023-02-20T16:44:50;99832.75;;;11.45;65.32
49341;BME280;35209;51.050;13.678;2023-02-20T16:49:53;99825.03;;;11.62;64.84
49341;BME280;35209;51.050;13.678;2023-02-20T16:54:57;99830.09;;;11.45;66.58
49341;BME280;35209;51.050;13.678;2023-02-20T16:59:59;99838.69;;;11.72;65.37
49341;BME280;35209;51.050;13.678;2023-02-20T17:05:01;99853.22;;;11.60;67.05
49341;BME280;35209;51.050;13.678;2023-02-20T17:10:04;99858.84;;;11.51;67.05
49341;BME280;35209;51.050;13.678;2023-02-20T17:15:07;99857.66;;;11.58;67.07
49341;BME280;35209;51.050;13.678;2023-02-20T17:20:12;99860.00;;;11.66;66.72
49341;BME280;35209;51.050;13.678;2023-02-20T17:25:21;99864.66;;;11.81;65.89
49341;BME280;35209;51.050;13.678;2023-02-20T17:30:24;99866.63;;;11.76;66.26
49341;BME280;35209;51.050;13.678;2023-02-20T17:35:26;99867.25;;;11.61;66.72
49341;BME280;35209;51.050;13.678;2023-02-20T17:40:28;99873.06;;;11.69;66.39
49341;BME280;35209;51.050;13.678;2023-02-20T17:45:30;99869.22;;;11.78;65.86
49341;BME280;35209;51.050;13.678;2023-02-20T17:50:32;99865.88;;;11.73;66.26
49341;BME280;35209;51.050;13.678;2023-02-20T17:55:35;99881.53;;;11.54;67.90
49341;BME280;35209;51.050;13.678;2023-02-20T18:00:37;99887.50;;;11.35;69.05
49341;BME280;35209;51.050;13.678;2023-02-20T18:05:40;99889.97;;;10.92;73.43
49341;BME280;35209;51.050;13.678;2023-02-20T18:10:42;99907.13;;;10.52;76.74
49341;BME280;35209;51.050;13.678;2023-02-20T18:15:44;99913.13;;;10.01;79.94
49341;BME280;35209;51.050;13.678;2023-02-20T18:20:46;99920.63;;;9.85;82.09
49341;BME280;35209;51.050;13.678;2023-02-20T18:25:48;99933.53;;;9.63;83.67
49341;BME280;35209;51.050;13.678;2023-02-20T18:30:50;99938.91;;;9.58;84.81
49341;BME280;35209;51.050;13.678;2023-02-20T18:35:52;99942.78;;;9.45;85.84
49341;BME280;35209;51.050;13.678;2023-02-20T18:41:09;99949.94;;;9.40;86.85
49341;BME280;35209;51.050;13.678;2023-02-20T18:46:22;99942.47;;;9.56;85.76
49341;BME280;35209;51.050;13.678;2023-02-20T18:51:33;99937.22;;;9.56;85.53
49341;BME280;35209;51.050;13.678;2023-02-20T18:56:35;99931.84;;;9.60;83.99
49341;BME280;35209;51.050;13.678;2023-02-20T19:01:40;99933.13;;;9.77;81.79
49341;BME280;35209;51.050;13.678;2023-02-20T19:06:43;99923.44;;;9.79;79.86
49341;BME280;35209;51.050;13.678;2023-02-20T19:11:52;99920.63;;;9.85;79.67
49341;BME280;35209;51.050;13.678;2023-02-20T19:16:56;99916.78;;;9.97;77.92
49341;BME280;35209;51.050;13.678;2023-02-20T19:21:59;99901.09;;;9.94;78.20
49341;BME280;35209;51.050;13.678;2023-02-20T19:27:01;99905.25;;;10.01;78.30
49341;BME280;35209;51.050;13.678;2023-02-20T19:32:03;99908.25;;;9.89;79.60
49341;BME280;35209;51.050;13.678;2023-02-20T19:37:05;99909.81;;;9.94;80.32
49341;BME280;35209;51.050;13.678;2023-02-20T19:42:07;99904.13;;;10.08;80.69
49341;BME280;35209;51.050;13.678;2023-02-20T19:47:09;99900.31;;;9.90;82.34
49341;BME280;35209;51.050;13.678;2023-02-20T19:52:11;99877.97;;;9.78;82.97
49341;BME280;35209;51.050;13.678;2023-02-20T19:57:13;99888.97;;;9.90;82.40
49341;BME280;35209;51.050;13.678;2023-02-20T20:02:15;99878.84;;;9.77;82.92
49341;BME280;35209;51.050;13.678;2023-02-20T20:07:17;99876.38;;;9.73;83.75
49341;BME280;35209;51.050;13.678;2023-02-20T20:12:19;99872.50;;;9.84;82.90
49341;BME280;35209;51.050;13.678;2023-02-20T20:17:39;99882.81;;;9.91;82.32
49341;BME280;35209;51.050;13.678;2023-02-20T20:22:41;99902.44;;;9.79;83.16
49341;BME280;35209;51.050;13.678;2023-02-20T20:27:42;99905.16;;;10.04;81.43
49341;BME280;35209;51.050;13.678;2023-02-20T20:32:46;99897.00;;;9.85;83.10
49341;BME280;35209;51.050;13.678;2023-02-20T20:37:49;99910.09;;;9.57;85.10
49341;BME280;35209;51.050;13.678;2023-02-20T20:42:51;99909.63;;;9.72;84.30
49341;BME280;35209;51.050;13.678;2023-02-20T20:47:53;99907.38;;;9.60;85.01
49341;BME280;35209;51.050;13.678;2023-02-20T20:52:57;99893.75;;;9.47;86.12
49341;BME280;35209;51.050;13.678;2023-02-20T20:57:58;99893.03;;;9.42;86.96
49341;BME280;35209;51.050;13.678;2023-02-20T21:03:02;99887.00;;;9.68;84.86
49341;BME280;35209;51.050;13.678;2023-02-20T21:08:04;99870.69;;;9.58;85.08
49341;BME280;35209;51.050;13.678;2023-02-20T21:13:09;99876.78;;;9.29;87.33
49341;BME280;35209;51.050;13.678;2023-02-20T21:18:10;99871.25;;;9.40;86.58
49341;BME280;35209;51.050;13.678;2023-02-20T21:23:12;99876.00;;;9.55;85.73
49341;BME280;35209;51.050;13.678;2023-02-20T21:28:14;99869.91;;;9.55;86.08
49341;BME280;35209;51.050;13.678;2023-02-20T21:33:16;99873.50;;;9.52;85.82
49341;BME280;35209;51.050;13.678;2023-02-20T21:38:18;99862.66;;;9.63;83.71
49341;BME280;35209;51.050;13.678;2023-02-20T21:43:19;99872.38;;;9.61;82.77
49341;BME280;35209;51.050;13.678;2023-02-20T21:48:39;99866.78;;;9.72;81.60
49341;BME280;35209;51.050;13.678;2023-02-20T21:53:41;99859.75;;;9.72;81.02
49341;BME280;35209;51.050;13.678;2023-02-20T21:58:43;99855.50;;;9.68;80.69
49341;BME280;35209;51.050;13.678;2023-02-20T22:04:08;99857.50;;;9.60;81.14
49341;BME280;35209;51.050;13.678;2023-02-20T22:09:12;99855.66;;;9.64;80.91
49341;BME280;35209;51.050;13.678;2023-02-20T22:14:33;99860.81;;;9.67;80.47
49341;BME280;35209;51.050;13.678;2023-02-20T22:19:54;99857.47;;;9.62;81.66
49341;BME280;35209;51.050;13.678;2023-02-20T22:25:16;99857.28;;;9.68;81.15
49341;BME280;35209;51.050;13.678;2023-02-20T22:30:36;99847.59;;;9.70;81.11
49341;BME280;35209;51.050;13.678;2023-02-20T22:35:57;99835.78;;;9.55;81.45
49341;BME280;35209;51.050;13.678;2023-02-20T22:41:18;99826.84;;;9.62;80.44
49341;BME280;35209;51.050;13.678;2023-02-20T22:46:39;99828.94;;;9.51;80.55
49341;BME280;35209;51.050;13.678;2023-02-20T22:51:59;99831.22;;;9.62;79.22
49341;BME280;35209;51.050;13.678;2023-02-20T22:57:19;99817.28;;;9.59;78.51
49341;BME280;35209;51.050;13.678;2023-02-20T23:02:39;99813.88;;;9.57;78.73
49341;BME280;35209;51.050;13.678;2023-02-20T23:08:00;99812.25;;;9.53;78.81
49341;BME280;35209;51.050;13.678;2023-02-20T23:13:21;99815.72;;;9.54;78.58
49341;BME280;35209;51.050;13.678;2023-02-20T23:18:41;99817.53;;;9.52;78.83
49341;BME280;35209;51.050;13.678;2023-02-20T23:24:01;99828.16;;;9.47;79.34
49341;BME280;35209;51.050;13.678;2023-02-20T23:29:22;99828.06;;;9.50;79.28
49341;BME280;35209;51.050;13.678;2023-02-20T23:34:42;99825.66;;;9.44;79.58
49341;BME280;35209;51.050;13.678;2023-02-20T23:40:03;99833.66;;;9.40;79.96
49341;BME280;35209;51.050;13.678;2023-02-20T23:45:36;99826.78;;;9.35;79.45
49341;BME280;35209;51.050;13.678;2023-02-20T23:50:57;99822.31;;;9.38;78.82
49341;BME280;35209;51.050;13.678;2023-02-20T23:56:18;99836.22;;;9.41;78.86
